createdAt,value
2022-11-29T00:01:15.546Z,12.07
2022-11-29T00:03:43.126Z,12.07
2022-11-29T00:06:13.808Z,11.73
2022-11-29T00:08:41.607Z,12.68
2022-11-29T00:11:13.606Z,13.75
2022-11-29T00:13:41.267Z,11.48
2022-11-29T00:16:10.777Z,12.35
2022-11-29T00:18:38.105Z,14.13
2022-11-29T00:21:08.949Z,13.07
2022-11-29T00:23:36.855Z,11.52
2022-11-29T00:26:05.694Z,13.07
2022-11-29T00:28:33.664Z,12.98
2022-11-29T00:31:00.774Z,11.27
2022-11-29T00:33:27.985Z,12.43
2022-11-29T00:35:54.968Z,13.85
2022-11-29T00:38:21.905Z,12.95
2022-11-29T00:40:52.860Z,13.00
2022-11-29T00:43:19.832Z,13.98
2022-11-29T00:45:46.853Z,11.80
2022-11-29T00:48:13.872Z,12.73
2022-11-29T00:50:41.034Z,12.00
2022-11-29T00:53:08.054Z,13.60
2022-11-29T00:55:35.024Z,12.93
2022-11-29T00:58:02.087Z,13.07
2022-11-29T01:00:29.317Z,13.35
2022-11-29T01:02:56.377Z,12.63
2022-11-29T01:05:23.441Z,13.15
2022-11-29T01:07:50.446Z,12.02
2022-11-29T01:10:17.502Z,12.60
2022-11-29T01:12:44.472Z,11.18
2022-11-29T01:15:11.810Z,13.43
2022-11-29T01:17:39.940Z,12.88
2022-11-29T01:20:10.527Z,12.95
2022-11-29T01:22:38.652Z,13.30
2022-11-29T01:25:07.250Z,11.98
2022-11-29T01:27:35.190Z,12.38
2022-11-29T01:30:02.388Z,11.90
2022-11-29T01:32:29.394Z,12.15
2022-11-29T01:34:56.348Z,11.73
2022-11-29T01:37:23.440Z,12.70
2022-11-29T01:39:50.807Z,12.05
2022-11-29T01:42:17.877Z,12.00
2022-11-29T01:44:50.654Z,12.85
2022-11-29T01:47:18.871Z,13.60
2022-11-29T01:49:49.458Z,12.25
2022-11-29T01:52:36.683Z,12.90
2022-11-29T01:55:07.536Z,12.52
2022-11-29T01:57:36.868Z,11.63
2022-11-29T02:00:12.900Z,11.73
2022-11-29T02:02:47.316Z,11.75
2022-11-29T02:05:16.997Z,11.85
2022-11-29T02:07:47.096Z,11.43
2022-11-29T02:10:15.610Z,12.32
2022-11-29T02:13:09.157Z,12.25
2022-11-29T02:15:36.154Z,10.00
2022-11-29T02:18:19.147Z,10.43
2022-11-29T02:21:04.216Z,11.05
2022-11-29T02:23:58.685Z,12.02
2022-11-29T02:27:07.992Z,11.43
2022-11-29T02:30:00.519Z,12.07
2022-11-29T02:32:36.534Z,10.63
2022-11-29T02:35:24.428Z,10.93
2022-11-29T02:38:29.508Z,10.02
2022-11-29T02:41:30.120Z,9.30
2022-11-29T02:44:05.981Z,10.48
2022-11-29T02:46:54.614Z,12.82
2022-11-29T02:49:49.413Z,9.88
2022-11-29T02:52:30.653Z,11.07
2022-11-29T02:55:39.425Z,10.70
2022-11-29T02:58:45.765Z,10.85
2022-11-29T03:01:51.223Z,10.90
2022-11-29T03:04:36.945Z,11.13
2022-11-29T03:07:20.159Z,9.20
2022-11-29T03:09:49.676Z,10.35
2022-11-29T03:12:37.757Z,11.73
2022-11-29T03:15:26.249Z,10.75
2022-11-29T03:18:20.289Z,11.00
2022-11-29T03:21:05.728Z,10.27
2022-11-29T03:23:48.185Z,11.48
2022-11-29T03:26:37.973Z,12.27
2022-11-29T03:29:12.262Z,12.10
2022-11-29T03:31:54.734Z,11.82
2022-11-29T03:34:57.551Z,11.55
2022-11-29T03:37:39.811Z,12.35
2022-11-29T03:40:09.216Z,10.68
2022-11-29T03:43:04.347Z,11.80
2022-11-29T03:45:42.743Z,12.50
2022-11-29T03:48:28.789Z,10.60
2022-11-29T03:51:03.367Z,11.13
2022-11-29T03:53:39.413Z,10.60
2022-11-29T03:56:29.372Z,11.77
2022-11-29T03:59:08.307Z,10.90
2022-11-29T04:02:23.183Z,10.40
2022-11-29T04:05:11.702Z,10.85
2022-11-29T04:07:44.807Z,11.50
2022-11-29T04:10:27.365Z,10.07
2022-11-29T04:13:12.388Z,11.40
2022-11-29T04:16:16.312Z,11.15
2022-11-29T04:19:07.916Z,12.05
2022-11-29T04:22:07.102Z,11.57
2022-11-29T04:25:11.641Z,11.30
2022-11-29T04:28:18.243Z,11.18
2022-11-29T04:30:51.557Z,10.95
2022-11-29T04:33:39.217Z,10.38
2022-11-29T04:36:26.928Z,12.23
2022-11-29T04:39:17.251Z,10.95
2022-11-29T04:41:48.837Z,10.90
2022-11-29T04:44:33.769Z,11.00
2022-11-29T04:47:22.963Z,11.88
2022-11-29T04:50:34.210Z,11.55
2022-11-29T04:53:39.830Z,10.82
2022-11-29T04:56:34.137Z,11.27
2022-11-29T04:59:22.673Z,13.40
2022-11-29T05:02:01.319Z,12.43
2022-11-29T05:04:46.986Z,11.57
2022-11-29T05:07:32.338Z,11.77
2022-11-29T05:10:18.535Z,12.25
2022-11-29T05:12:53.803Z,12.10
2022-11-29T05:15:42.369Z,12.02
2022-11-29T05:18:35.967Z,12.30
2022-11-29T05:21:21.801Z,12.88
2022-11-29T05:23:48.707Z,12.30
2022-11-29T05:26:37.875Z,11.90
2022-11-29T05:29:25.854Z,12.07
2022-11-29T05:32:20.485Z,16.23
2022-11-29T05:34:59.487Z,16.05
2022-11-29T05:37:42.074Z,14.77
2022-11-29T05:40:20.813Z,14.18
2022-11-29T05:42:56.838Z,12.70
2022-11-29T05:45:32.971Z,13.88
2022-11-29T05:48:24.985Z,14.50
2022-11-29T05:51:06.618Z,13.52
2022-11-29T05:53:36.311Z,14.00
2022-11-29T05:56:10.238Z,12.85
2022-11-29T05:58:48.383Z,14.25
2022-11-29T06:01:19.259Z,14.55
2022-11-29T06:04:16.386Z,13.63
2022-11-29T06:07:09.405Z,14.45
2022-11-29T06:10:04.177Z,16.45
2022-11-29T06:12:36.144Z,13.82
2022-11-29T06:15:34.457Z,13.35
2022-11-29T06:18:26.421Z,15.75
2022-11-29T06:21:22.604Z,14.25
2022-11-29T06:24:25.855Z,14.15
2022-11-29T06:27:22.786Z,13.38
2022-11-29T06:30:04.172Z,13.20
2022-11-29T06:32:49.176Z,12.80
2022-11-29T06:35:33.628Z,13.98
2022-11-29T06:38:06.991Z,14.65
2022-11-29T06:40:34.218Z,12.82
2022-11-29T06:43:01.503Z,14.13
2022-11-29T06:45:28.820Z,11.68
2022-11-29T06:48:03.829Z,13.45
2022-11-29T06:50:37.681Z,12.73
2022-11-29T06:53:56.920Z,14.23
2022-11-29T06:56:36.026Z,13.90
2022-11-29T06:59:08.814Z,14.20
2022-11-29T07:01:39.954Z,14.80
2022-11-29T07:04:45.404Z,12.98
2022-11-29T07:07:18.638Z,13.43
2022-11-29T07:09:49.526Z,14.10
2022-11-29T07:12:17.928Z,12.90
2022-11-29T07:14:45.811Z,13.90
2022-11-29T07:17:32.497Z,14.85
2022-11-29T07:20:13.416Z,13.68
2022-11-29T07:22:53.427Z,13.27
2022-11-29T07:25:20.490Z,14.25
2022-11-29T07:27:54.938Z,15.15
2022-11-29T07:30:36.869Z,14.43
2022-11-29T07:33:13.067Z,14.60
2022-11-29T07:35:50.723Z,15.45
2022-11-29T07:38:45.071Z,13.90
2022-11-29T07:41:15.330Z,14.60
2022-11-29T07:43:51.916Z,15.23
2022-11-29T07:46:19.092Z,14.40
2022-11-29T07:48:46.082Z,15.43
2022-11-29T07:51:13.549Z,17.10
2022-11-29T07:53:43.334Z,15.43
2022-11-29T07:56:12.762Z,15.00
2022-11-29T07:58:39.951Z,14.07
2022-11-29T08:01:07.152Z,15.32
2022-11-29T08:03:35.696Z,14.05
2022-11-29T08:06:03.332Z,14.40
2022-11-29T08:08:30.543Z,14.70
2022-11-29T08:10:57.518Z,13.48
2022-11-29T08:13:24.488Z,14.40
2022-11-29T08:15:51.511Z,14.20
2022-11-29T08:18:18.708Z,13.13
2022-11-29T08:20:46.647Z,14.15
2022-11-29T08:23:14.433Z,13.88
2022-11-29T08:25:41.769Z,14.43
2022-11-29T08:28:08.833Z,12.93
2022-11-29T08:30:36.037Z,13.85
2022-11-29T08:33:03.076Z,14.93
2022-11-29T08:35:30.644Z,11.73
2022-11-29T08:37:57.659Z,13.93
2022-11-29T08:40:24.710Z,14.38
2022-11-29T08:42:51.822Z,13.18
2022-11-29T08:45:18.854Z,14.32
2022-11-29T08:47:45.828Z,12.07
2022-11-29T08:50:16.373Z,13.02
2022-11-29T08:53:04.310Z,13.30
2022-11-29T08:55:36.986Z,13.95
2022-11-29T08:58:07.696Z,12.50
2022-11-29T09:00:35.047Z,12.23
2022-11-29T09:03:21.939Z,12.93
2022-11-29T09:05:49.064Z,12.23
2022-11-29T09:08:16.474Z,13.70
2022-11-29T09:10:43.712Z,12.38
2022-11-29T09:13:11.357Z,13.27
2022-11-29T09:15:43.697Z,15.98
2022-11-29T09:18:10.851Z,13.00
2022-11-29T09:20:37.886Z,12.45
2022-11-29T09:23:05.173Z,12.77
2022-11-29T09:25:32.180Z,12.80
2022-11-29T09:28:03.796Z,12.68
2022-11-29T09:30:31.798Z,12.63
2022-11-29T09:33:05.512Z,12.60
2022-11-29T09:35:33.579Z,12.48
2022-11-29T09:38:00.782Z,12.82
2022-11-29T09:40:54.282Z,12.57
2022-11-29T09:43:41.229Z,11.90
2022-11-29T09:46:21.761Z,12.85
2022-11-29T09:49:27.352Z,13.27
2022-11-29T09:52:15.198Z,12.88
2022-11-29T09:55:14.065Z,12.43
2022-11-29T09:57:44.072Z,12.27
2022-11-29T10:00:20.231Z,11.32
2022-11-29T10:02:55.428Z,13.50
2022-11-29T10:05:30.165Z,13.60
2022-11-29T10:08:14.756Z,11.75
2022-11-29T10:10:47.697Z,11.77
2022-11-29T10:13:45.096Z,12.45
2022-11-29T10:16:14.678Z,12.43
2022-11-29T10:18:50.128Z,11.73
2022-11-29T10:21:22.971Z,10.82
2022-11-29T10:23:58.515Z,12.25
2022-11-29T10:26:29.276Z,11.65
2022-11-29T10:28:59.778Z,11.15
2022-11-29T10:31:29.690Z,10.82
2022-11-29T10:33:59.994Z,9.70
2022-11-29T10:36:39.655Z,11.10
2022-11-29T10:39:14.769Z,10.75
2022-11-29T10:41:42.233Z,11.07
2022-11-29T10:44:15.109Z,11.55
2022-11-29T10:46:42.230Z,11.75
2022-11-29T10:49:18.274Z,11.57
2022-11-29T10:51:48.016Z,11.40
2022-11-29T10:54:30.102Z,12.20
2022-11-29T10:56:59.634Z,11.40
2022-11-29T10:59:29.358Z,10.45
2022-11-29T11:01:57.457Z,10.82
2022-11-29T11:04:43.102Z,10.80
2022-11-29T11:07:24.091Z,11.63
2022-11-29T11:09:54.120Z,12.38
2022-11-29T11:12:25.440Z,12.35
2022-11-29T11:14:53.146Z,13.15
2022-11-29T11:17:33.069Z,13.10
2022-11-29T11:20:04.783Z,11.65
2022-11-29T11:22:33.594Z,10.85
2022-11-29T11:25:24.871Z,12.48
2022-11-29T11:27:52.096Z,10.27
2022-11-29T11:30:25.942Z,12.68
2022-11-29T11:33:14.803Z,12.63
2022-11-29T11:35:41.837Z,11.70
2022-11-29T11:38:17.688Z,10.70
2022-11-29T11:40:45.283Z,11.02
2022-11-29T11:43:21.629Z,11.23
2022-11-29T11:45:54.012Z,10.35
2022-11-29T11:48:22.723Z,11.18
2022-11-29T11:50:53.277Z,11.38
2022-11-29T11:53:37.030Z,11.45
2022-11-29T11:56:11.002Z,11.65
2022-11-29T11:58:44.113Z,9.80
2022-11-29T12:01:15.974Z,11.88
2022-11-29T12:03:59.518Z,11.50
2022-11-29T12:06:38.770Z,11.70
2022-11-29T12:09:08.891Z,11.43
2022-11-29T12:12:15.583Z,11.13
2022-11-29T12:14:48.217Z,11.52
2022-11-29T12:17:36.413Z,11.15
2022-11-29T12:20:31.762Z,10.75
2022-11-29T12:23:14.346Z,11.00
2022-11-29T12:25:55.710Z,12.02
2022-11-29T12:28:28.165Z,11.55
2022-11-29T12:31:04.054Z,11.50
2022-11-29T12:34:03.125Z,10.30
2022-11-29T12:36:41.752Z,12.05
2022-11-29T12:39:28.190Z,11.10
2022-11-29T12:41:58.049Z,11.77
2022-11-29T12:44:40.045Z,12.00
2022-11-29T12:47:35.832Z,11.80
2022-11-29T12:50:39.882Z,12.35
2022-11-29T12:53:12.776Z,11.20
2022-11-29T12:55:49.348Z,11.10
2022-11-29T12:58:24.033Z,11.15
2022-11-29T13:01:15.370Z,12.07
2022-11-29T13:04:08.458Z,11.23
2022-11-29T13:06:49.655Z,10.85
2022-11-29T13:09:33.695Z,10.20
2022-11-29T13:12:13.104Z,10.57
2022-11-29T13:15:07.043Z,10.20
2022-11-29T13:17:48.802Z,10.32
2022-11-29T13:20:38.931Z,12.00
2022-11-29T13:23:14.573Z,10.30
2022-11-29T13:25:44.369Z,10.40
2022-11-29T13:28:38.080Z,9.52
2022-11-29T13:31:19.955Z,9.73
2022-11-29T13:34:03.626Z,9.80
2022-11-29T13:36:42.627Z,9.75
2022-11-29T13:39:31.517Z,9.63
2022-11-29T13:42:01.484Z,9.35
2022-11-29T13:44:38.590Z,10.70
2022-11-29T13:47:17.373Z,9.48
2022-11-29T13:49:57.156Z,9.55
2022-11-29T13:53:04.764Z,10.23
2022-11-29T13:55:33.317Z,11.25
2022-11-29T13:58:33.355Z,9.38
2022-11-29T14:01:08.691Z,9.57
2022-11-29T14:03:40.294Z,10.15
2022-11-29T14:06:18.781Z,10.00
2022-11-29T14:09:19.553Z,11.18
2022-11-29T14:12:00.243Z,10.55
2022-11-29T14:14:51.386Z,9.32
2022-11-29T14:17:47.719Z,12.02
2022-11-29T14:20:23.581Z,11.85
2022-11-29T14:23:05.810Z,10.70
2022-11-29T14:28:20.997Z,11.57
2022-11-29T14:30:52.650Z,9.80
2022-11-29T14:33:31.511Z,9.25
2022-11-29T14:36:25.841Z,10.00
2022-11-29T14:39:15.967Z,9.60
2022-11-29T14:41:48.648Z,11.23
2022-11-29T14:44:21.826Z,11.52
2022-11-29T14:46:59.512Z,12.82
2022-11-29T14:49:29.009Z,12.35
2022-11-29T14:52:10.086Z,12.30
2022-11-29T14:54:55.359Z,11.93
2022-11-29T14:57:47.958Z,12.68
2022-11-29T15:00:16.226Z,12.75
2022-11-29T15:03:01.447Z,13.73
2022-11-29T15:05:36.100Z,14.02
2022-11-29T15:08:30.740Z,15.20
2022-11-29T15:11:02.201Z,14.70
2022-11-29T15:13:36.995Z,12.35
2022-11-29T15:16:21.356Z,13.45
2022-11-29T15:19:15.349Z,13.20
2022-11-29T15:21:56.309Z,12.23
2022-11-29T15:24:28.275Z,14.05
2022-11-29T15:27:01.493Z,12.93
2022-11-29T15:29:31.957Z,13.52
2022-11-29T15:32:02.078Z,12.63
2022-11-29T15:34:38.650Z,13.85
2022-11-29T15:37:06.155Z,13.80
2022-11-29T15:39:37.774Z,14.75
2022-11-29T15:42:13.018Z,13.95
2022-11-29T15:44:49.297Z,13.00
2022-11-29T15:47:21.654Z,11.77
2022-11-29T15:49:49.814Z,14.05
2022-11-29T15:52:29.153Z,13.68
2022-11-29T15:55:02.117Z,13.85
2022-11-29T15:57:41.977Z,12.60
2022-11-29T16:00:16.925Z,12.75
2022-11-29T16:02:52.406Z,12.20
2022-11-29T16:05:24.175Z,13.85
2022-11-29T16:07:55.385Z,13.60
2022-11-29T16:10:34.971Z,13.40
2022-11-29T16:13:25.416Z,15.20
2022-11-29T16:16:14.867Z,13.98
2022-11-29T16:18:44.832Z,13.88
2022-11-29T16:21:27.512Z,14.90
2022-11-29T16:23:55.829Z,13.35
2022-11-29T16:26:36.383Z,12.93
2022-11-29T16:29:05.264Z,13.07
2022-11-29T16:31:36.010Z,13.15
2022-11-29T16:34:21.441Z,14.75
2022-11-29T16:37:06.808Z,14.10
2022-11-29T16:39:39.404Z,15.35
2022-11-29T16:42:25.916Z,12.82
2022-11-29T16:45:05.742Z,13.55
2022-11-29T16:47:47.860Z,14.60
2022-11-29T16:50:22.837Z,14.18
2022-11-29T16:52:56.390Z,14.13
2022-11-29T16:55:24.172Z,14.23
2022-11-29T16:57:52.881Z,13.90
2022-11-29T17:00:32.767Z,15.20
2022-11-29T17:03:00.527Z,13.68
2022-11-29T17:05:28.418Z,14.50
2022-11-29T17:07:56.183Z,15.98
2022-11-29T17:10:25.838Z,14.88
2022-11-29T17:12:52.932Z,15.65
2022-11-29T17:15:20.649Z,15.20
2022-11-29T17:17:48.081Z,15.35
2022-11-29T17:20:15.282Z,15.45
2022-11-29T17:22:42.851Z,14.57
2022-11-29T17:25:10.730Z,13.98
2022-11-29T17:27:43.009Z,15.00
2022-11-29T17:30:11.610Z,13.07
2022-11-29T17:32:38.924Z,13.00
2022-11-29T17:35:06.552Z,12.00
2022-11-29T17:37:33.851Z,13.82
2022-11-29T17:40:01.125Z,15.85
2022-11-29T17:42:28.569Z,13.07
2022-11-29T17:44:56.304Z,14.82
2022-11-29T17:47:24.260Z,13.70
2022-11-29T17:49:53.676Z,13.80
2022-11-29T17:52:23.142Z,13.95
2022-11-29T17:54:51.448Z,14.27
2022-11-29T17:57:19.907Z,15.05
2022-11-29T17:59:49.849Z,14.63
2022-11-29T18:02:17.430Z,14.38
2022-11-29T18:04:45.349Z,14.00
2022-11-29T18:07:15.469Z,13.40
2022-11-29T18:09:43.760Z,13.50
2022-11-29T18:12:11.964Z,14.65
2022-11-29T18:14:41.498Z,13.55
2022-11-29T18:17:09.457Z,15.25
2022-11-29T18:19:37.281Z,13.60
2022-11-29T18:22:05.020Z,14.73
2022-11-29T18:24:32.861Z,14.82
2022-11-29T18:27:03.791Z,13.82
2022-11-29T18:29:37.546Z,14.82
2022-11-29T18:32:06.922Z,13.80
2022-11-29T18:34:34.829Z,15.50
2022-11-29T18:37:04.690Z,12.75
2022-11-29T18:39:32.621Z,13.57
2022-11-29T18:42:00.432Z,14.77
2022-11-29T18:44:30.131Z,14.70
2022-11-29T18:46:58.435Z,12.88
2022-11-29T18:49:26.357Z,15.35
2022-11-29T18:51:54.109Z,14.20
2022-11-29T18:54:22.033Z,13.35
2022-11-29T18:56:52.201Z,14.68
2022-11-29T18:59:20.630Z,15.98
2022-11-29T19:01:50.491Z,14.68
2022-11-29T19:04:21.723Z,14.80
2022-11-29T19:06:50.614Z,15.05
2022-11-29T19:09:24.381Z,13.40
2022-11-29T19:11:58.739Z,14.75
2022-11-29T19:14:26.851Z,14.85
2022-11-29T19:16:54.613Z,15.10
2022-11-29T19:19:23.309Z,15.20
2022-11-29T19:21:51.615Z,13.95
2022-11-29T19:24:20.074Z,15.60
2022-11-29T19:26:49.188Z,14.48
2022-11-29T19:29:17.789Z,14.65
2022-11-29T19:31:47.116Z,15.30
2022-11-29T19:34:15.344Z,15.18
2022-11-29T19:36:44.765Z,14.40
2022-11-29T19:39:17.185Z,15.85
2022-11-29T19:41:50.081Z,14.63
2022-11-29T19:44:19.483Z,15.75
2022-11-29T19:46:52.666Z,14.85
2022-11-29T19:49:20.527Z,15.40
2022-11-29T19:51:48.339Z,14.32
2022-11-29T19:54:17.606Z,17.02
2022-11-29T19:56:45.712Z,17.85
2022-11-29T19:59:13.605Z,15.80
2022-11-29T20:01:42.850Z,16.10
2022-11-29T20:04:13.078Z,15.23
2022-11-29T20:06:42.490Z,17.67
2022-11-29T20:09:14.352Z,16.63
2022-11-29T20:11:43.382Z,16.80
2022-11-29T20:14:13.579Z,16.42
2022-11-29T20:16:44.890Z,15.98
2022-11-29T20:19:15.886Z,16.65
2022-11-29T20:21:46.419Z,15.63
2022-11-29T20:24:21.362Z,16.02
2022-11-29T20:26:50.830Z,17.70
2022-11-29T20:29:20.196Z,17.50
2022-11-29T20:31:51.028Z,16.30
2022-11-29T20:34:20.495Z,15.75
2022-11-29T20:36:51.460Z,15.80
2022-11-29T20:39:29.697Z,16.85
2022-11-29T20:42:15.148Z,16.08
2022-11-29T20:45:04.884Z,16.27
2022-11-29T20:47:49.726Z,18.08
2022-11-29T20:50:26.389Z,16.13
2022-11-29T20:52:56.991Z,18.20
2022-11-29T20:55:24.215Z,16.70
2022-11-29T20:57:55.305Z,17.65
2022-11-29T21:00:23.888Z,18.70
2022-11-29T21:02:51.623Z,17.05
2022-11-29T21:05:19.156Z,16.63
2022-11-29T21:07:47.298Z,16.45
2022-11-29T21:10:17.553Z,15.00
2022-11-29T21:12:46.324Z,16.55
2022-11-29T21:15:15.423Z,16.17
2022-11-29T21:17:44.827Z,17.92
2022-11-29T21:20:30.389Z,18.08
2022-11-29T21:23:25.830Z,16.38
2022-11-29T21:25:58.514Z,16.95
2022-11-29T21:28:33.154Z,16.50
2022-11-29T21:31:00.672Z,15.45
2022-11-29T21:33:28.014Z,16.58
2022-11-29T21:35:59.585Z,16.52
2022-11-29T21:38:28.865Z,16.02
2022-11-29T21:40:55.886Z,17.42
2022-11-29T21:43:32.708Z,16.98
2022-11-29T21:46:10.050Z,16.55
2022-11-29T21:48:38.046Z,17.45
2022-11-29T21:51:07.299Z,15.38
2022-11-29T21:53:39.059Z,18.27
2022-11-29T21:56:08.593Z,16.33
2022-11-29T21:58:37.138Z,17.15
2022-11-29T22:01:18.847Z,16.80
2022-11-29T22:03:46.393Z,17.33
2022-11-29T22:06:21.399Z,17.15
2022-11-29T22:08:49.122Z,16.35
2022-11-29T22:11:30.995Z,17.05
2022-11-29T22:14:14.405Z,17.83
2022-11-29T22:16:45.260Z,14.75
2022-11-29T22:19:14.297Z,17.90
2022-11-29T22:21:42.691Z,17.73
2022-11-29T22:24:10.640Z,15.57
2022-11-29T22:26:38.040Z,17.38
2022-11-29T22:29:05.953Z,16.27
2022-11-29T22:31:36.573Z,15.95
2022-11-29T22:34:03.703Z,14.90
2022-11-29T22:36:30.680Z,15.80
2022-11-29T22:38:57.638Z,15.98
2022-11-29T22:41:24.759Z,17.98
2022-11-29T22:43:51.825Z,15.00
2022-11-29T22:46:21.848Z,15.77
2022-11-29T22:48:51.757Z,17.63
2022-11-29T22:51:24.998Z,16.35
2022-11-29T22:53:56.641Z,16.65
2022-11-29T22:56:25.993Z,20.38
2022-11-29T22:58:54.093Z,18.05
2022-11-29T23:01:26.730Z,16.52
2022-11-29T23:03:56.509Z,15.48
2022-11-29T23:06:31.095Z,17.50
2022-11-29T23:09:03.677Z,16.45
2022-11-29T23:11:31.385Z,16.75
2022-11-29T23:13:58.663Z,16.77
2022-11-29T23:16:30.064Z,17.40
2022-11-29T23:18:58.930Z,16.90
2022-11-29T23:21:28.704Z,17.85
2022-11-29T23:23:56.989Z,15.98
2022-11-29T23:26:46.479Z,17.58
2022-11-29T23:29:16.460Z,15.40
2022-11-29T23:31:43.718Z,14.85
2022-11-29T23:34:10.887Z,16.52
2022-11-29T23:36:37.811Z,16.73
2022-11-29T23:39:06.809Z,18.13
2022-11-29T23:41:35.767Z,18.25
2022-11-29T23:44:06.799Z,18.67
2022-11-29T23:46:35.654Z,16.67
2022-11-29T23:49:02.827Z,17.75
2022-11-29T23:51:29.777Z,16.95
2022-11-29T23:53:56.804Z,18.25
2022-11-29T23:56:23.860Z,19.20
2022-11-29T23:58:50.912Z,18.50
